Time;durP1;ratioP1;P1;durP2;ratioP2;P2;SDS_P1;SDS_P2;PMS_P1;PMS_P2;Temp;Humidity;BMP_temperature;BMP_pressure;BME280_temperature;BME280_humidity;BME280_pressure;Samples;Min_cycle;Max_cycle;Signal;HPM_P1;HPM_P2
2023/01/18 00:00:42;;;;;;;;;;;;;;;2.85;100.00;96494.19;5072468;28;19917;-75
2023/01/18 00:03:10;;;;;;;;;;;;;;;3.06;100.00;96500.13;5052998;28;19920;-75
2023/01/18 00:05:40;;;;;;;;;;;;;;;3.07;100.00;96499.22;5056105;28;20432;-75
2023/01/18 00:08:09;;;;;;;;;;;;;;;2.90;100.00;96500.75;5054856;28;20414;-75
2023/01/18 00:10:34;;;;;;;;;;;;;;;3.09;100.00;96499.97;5055236;28;19916;-75
2023/01/18 00:12:59;;;;;;;;;;;;;;;3.23;100.00;96502.75;5047651;28;19922;-75
2023/01/18 00:15:25;;;;;;;;;;;;;;;3.16;100.00;96496.28;5071936;28;19969;-75
2023/01/18 00:17:53;;;;;;;;;;;;;;;3.26;100.00;96497.56;5072266;28;20048;-75
2023/01/18 00:20:19;;;;;;;;;;;;;;;2.96;100.00;96499.66;5052413;28;19932;-76
2023/01/18 00:22:45;;;;;;;;;;;;;;;3.11;100.00;96505.84;5071639;28;20410;-75
2023/01/18 00:25:10;;;;;;;;;;;;;;;2.73;100.00;96498.06;5071596;28;19916;-75
2023/01/18 00:27:36;;;;;;;;;;;;;;;2.38;100.00;96507.94;5053663;28;20007;-75
2023/01/18 00:30:02;;;;;;;;;;;;;;;2.49;100.00;96515.97;5051695;28;20243;-75
2023/01/18 00:32:27;;;;;;;;;;;;;;;2.80;100.00;96527.44;5070408;28;20017;-75
2023/01/18 00:34:53;;;;;;;;;;;;;;;2.50;100.00;96532.84;5052386;28;20413;-75
2023/01/18 00:37:18;;;;;;;;;;;;;;;2.14;100.00;96530.03;5046357;28;19924;-76
2023/01/18 00:39:43;;;;;;;;;;;;;;;2.20;100.00;96536.59;5071479;28;19916;-75
2023/01/18 00:44:52;;;;;;;;;;;;;;;2.49;100.00;96543.91;5072441;28;20424;-75
2023/01/18 00:47:18;;;;;;;;;;;;;;;2.68;100.00;96535.56;5070630;28;19916;-75
2023/01/18 00:49:44;;;;;;;;;;;;;;;2.44;100.00;96529.72;5053601;28;19927;-75
2023/01/18 00:52:09;;;;;;;;;;;;;;;2.50;100.00;96526.94;5074095;28;19916;-75
2023/01/18 00:54:34;;;;;;;;;;;;;;;2.14;100.00;96524.13;5071548;28;19927;-76
2023/01/18 00:56:59;;;;;;;;;;;;;;;2.22;100.00;96527.22;5073475;28;19962;-75
2023/01/18 00:59:24;;;;;;;;;;;;;;;2.13;100.00;96525.84;5071454;28;19964;-75
2023/01/18 01:01:50;;;;;;;;;;;;;;;1.68;100.00;96527.50;5071784;28;19928;-75
2023/01/18 01:06:59;;;;;;;;;;;;;;;1.43;100.00;96534.31;5055336;28;20015;-75
2023/01/18 01:09:25;;;;;;;;;;;;;;;1.24;100.00;96539.22;5045303;28;20831;-75
2023/01/18 01:28:15;;;;;;;;;;;;;;;2.13;100.00;96599.47;5073217;28;19942;-75
2023/01/18 01:30:41;;;;;;;;;;;;;;;1.95;100.00;96580.66;5071621;28;19924;-76
2023/01/18 01:33:06;;;;;;;;;;;;;;;2.15;100.00;96584.19;5053807;28;19926;-75
2023/01/18 01:35:31;;;;;;;;;;;;;;;2.22;100.00;96578.81;5070597;28;20475;-75
2023/01/18 01:37:56;;;;;;;;;;;;;;;2.21;100.00;96577.16;5070862;28;19924;-75
2023/01/18 01:40:22;;;;;;;;;;;;;;;2.24;100.00;96582.13;5055160;28;20294;-75
2023/01/18 01:42:48;;;;;;;;;;;;;;;2.16;100.00;96580.75;5075545;28;19916;-75
2023/01/18 01:45:13;;;;;;;;;;;;;;;2.01;100.00;96566.94;5057240;28;20532;-75
2023/01/18 01:47:39;;;;;;;;;;;;;;;2.26;100.00;96574.47;5074835;28;19959;-76
2023/01/18 01:50:14;;;;;;;;;;;;;;;2.25;100.00;96575.31;5075038;28;19920;-76
2023/01/18 01:52:40;;;;;;;;;;;;;;;2.23;100.00;96577.91;5055847;28;20250;-76
2023/01/18 01:55:10;;;;;;;;;;;;;;;2.13;100.00;96573.25;5074485;28;19917;-77
2023/01/18 01:57:37;;;;;;;;;;;;;;;2.23;100.00;96572.84;5074273;28;19920;-75
2023/01/18 02:00:04;;;;;;;;;;;;;;;1.87;100.00;96567.41;5074421;28;19942;-75
2023/01/18 02:02:30;;;;;;;;;;;;;;;2.23;100.00;96577.91;5048857;28;19970;-75
2023/01/18 02:04:55;;;;;;;;;;;;;;;2.28;100.00;96575.19;5055928;28;19944;-75
2023/01/18 02:07:21;;;;;;;;;;;;;;;2.10;100.00;96569.13;5056155;28;20283;-76
2023/01/18 02:09:46;;;;;;;;;;;;;;;1.98;100.00;96575.47;5056410;28;20289;-75
2023/01/18 02:12:11;;;;;;;;;;;;;;;1.78;100.00;96575.34;5073076;28;19997;-75
2023/01/18 02:14:36;;;;;;;;;;;;;;;1.79;100.00;96582.09;5077097;28;19930;-76
2023/01/18 02:17:20;;;;;;;;;;;;;;;2.02;100.00;96587.16;5057992;28;19939;-76
2023/01/18 02:20:01;;;;;;;;;;;;;;;2.01;100.00;96590.59;5073947;28;20280;-76
2023/01/18 02:22:35;;;;;;;;;;;;;;;2.23;100.00;96590.59;5056785;28;20342;-76
2023/01/18 02:25:09;;;;;;;;;;;;;;;2.30;100.00;96589.53;5072822;28;19916;-76
2023/01/18 02:27:55;;;;;;;;;;;;;;;2.18;100.00;96589.16;5074393;28;20441;-75
2023/01/18 02:30:23;;;;;;;;;;;;;;;2.52;100.00;96583.59;5055793;28;19920;-76
2023/01/18 02:33:08;;;;;;;;;;;;;;;2.13;100.00;96585.97;5058148;28;19942;-76
2023/01/18 02:35:43;;;;;;;;;;;;;;;2.05;100.00;96587.06;5057373;28;19920;-76
2023/01/18 02:38:11;;;;;;;;;;;;;;;1.97;100.00;96583.97;5055118;28;19924;-76
2023/01/18 02:40:44;;;;;;;;;;;;;;;2.03;100.00;96583.75;5055970;28;19916;-75
2023/01/18 02:48:38;;;;;;;;;;;;;;;2.25;100.00;96595.63;5058496;28;19961;-76
2023/01/18 02:51:04;;;;;;;;;;;;;;;2.33;100.00;96588.56;5057292;28;20018;-76
2023/01/18 02:53:29;;;;;;;;;;;;;;;2.48;100.00;96584.59;5055352;28;20138;-76
2023/01/18 02:56:00;;;;;;;;;;;;;;;2.35;100.00;96584.28;5047054;28;19920;-76
2023/01/18 02:58:32;;;;;;;;;;;;;;;1.99;100.00;96582.22;5072295;28;19931;-76
2023/01/18 03:01:07;;;;;;;;;;;;;;;2.17;100.00;96584.97;5074044;28;19957;-76
2023/01/18 03:03:33;;;;;;;;;;;;;;;1.92;100.00;96590.13;5056076;28;19955;-76
2023/01/18 03:06:00;;;;;;;;;;;;;;;1.69;100.00;96604.44;5058521;28;19994;-77
2023/01/18 03:08:37;;;;;;;;;;;;;;;1.89;100.00;96601.19;5073794;28;19924;-76
2023/01/18 03:11:04;;;;;;;;;;;;;;;2.20;100.00;96600.06;5035969;28;19920;-76
2023/01/18 03:13:36;;;;;;;;;;;;;;;2.33;100.00;96595.34;5054715;28;19920;-76
2023/01/18 03:16:17;;;;;;;;;;;;;;;2.14;100.00;96590.13;5074040;28;19928;-76
2023/01/18 03:19:00;;;;;;;;;;;;;;;2.16;100.00;96593.44;5055019;28;19943;-76
2023/01/18 03:21:36;;;;;;;;;;;;;;;2.23;100.00;96592.34;5054760;28;19920;-76
2023/01/18 03:24:02;;;;;;;;;;;;;;;2.18;100.00;96591.69;5073377;28;19938;-76
2023/01/18 03:26:27;;;;;;;;;;;;;;;2.07;100.00;96589.53;5054188;28;20441;-76
2023/01/18 03:34:24;;;;;;;;;;;;;;;1.74;100.00;96601.75;5057918;28;19974;-76
2023/01/18 03:36:53;;;;;;;;;;;;;;;1.68;100.00;96605.31;5055693;28;19966;-76
2023/01/18 03:39:29;;;;;;;;;;;;;;;2.10;100.00;96609.75;5056629;28;19935;-76
2023/01/18 03:41:58;;;;;;;;;;;;;;;2.20;100.00;96612.78;5055486;28;19958;-76
2023/01/18 03:44:44;;;;;;;;;;;;;;;2.47;100.00;96609.19;5053075;28;19920;-76
2023/01/18 03:47:09;;;;;;;;;;;;;;;2.22;100.00;96608.47;5072857;28;20007;-76
2023/01/18 03:49:34;;;;;;;;;;;;;;;2.06;100.00;96601.41;5053703;28;20337;-76
2023/01/18 03:52:15;;;;;;;;;;;;;;;2.26;100.00;96604.94;5056327;28;20409;-76
2023/01/18 03:54:59;;;;;;;;;;;;;;;2.30;100.00;96616.59;5054902;28;19962;-76
2023/01/18 03:57:32;;;;;;;;;;;;;;;2.08;100.00;96607.25;5072625;28;19969;-75
2023/01/18 03:59:57;;;;;;;;;;;;;;;1.99;100.00;96617.75;5055055;28;19920;-76
2023/01/18 04:02:22;;;;;;;;;;;;;;;1.90;100.00;96623.16;5054216;28;19938;-75
2023/01/18 04:04:47;;;;;;;;;;;;;;;1.56;100.00;96634.47;5055287;28;19924;-75
2023/01/18 04:07:13;;;;;;;;;;;;;;;1.93;100.00;96648.41;5072966;28;19926;-75
2023/01/18 04:09:38;;;;;;;;;;;;;;;1.88;100.00;96647.75;5054104;28;19942;-75
2023/01/18 04:12:03;;;;;;;;;;;;;;;2.06;100.00;96648.81;5072277;28;19955;-75
2023/01/18 04:14:29;;;;;;;;;;;;;;;1.88;100.00;96640.97;5046042;28;19923;-76
2023/01/18 04:16:54;;;;;;;;;;;;;;;1.67;100.00;96637.47;5047471;28;19963;-76
2023/01/18 04:19:19;;;;;;;;;;;;;;;2.03;100.00;96639.59;5072589;28;20035;-76
2023/01/18 04:21:45;;;;;;;;;;;;;;;2.15;100.00;96640.03;5071549;28;19951;-75
2023/01/18 04:24:10;;;;;;;;;;;;;;;2.04;100.00;96641.25;5071775;28;19931;-75
2023/01/18 04:26:36;;;;;;;;;;;;;;;1.88;100.00;96640.16;5054403;28;19920;-75
2023/01/18 04:29:01;;;;;;;;;;;;;;;1.90;100.00;96647.72;5072475;28;19916;-75
2023/01/18 04:31:26;;;;;;;;;;;;;;;1.95;100.00;96638.22;5047292;28;19954;-75
2023/01/18 04:33:51;;;;;;;;;;;;;;;2.17;100.00;96645.91;5053067;28;20031;-75
2023/01/18 04:36:17;;;;;;;;;;;;;;;1.87;100.00;96635.94;5070420;28;19920;-76
2023/01/18 04:38:42;;;;;;;;;;;;;;;1.89;100.00;96639.25;5053425;28;19924;-76
2023/01/18 04:41:08;;;;;;;;;;;;;;;1.88;100.00;96645.22;5077438;28;19942;-76
2023/01/18 04:43:33;;;;;;;;;;;;;;;2.15;100.00;96638.31;5071256;28;19931;-75
2023/01/18 04:45:58;;;;;;;;;;;;;;;2.04;100.00;96638.72;5074479;28;21566;-75
2023/01/18 04:48:24;;;;;;;;;;;;;;;1.99;100.00;96643.13;5072720;28;19921;-74
2023/01/18 04:50:49;;;;;;;;;;;;;;;2.09;100.00;96636.00;5052806;28;19930;-75
2023/01/18 04:53:15;;;;;;;;;;;;;;;2.22;100.00;96631.31;5054539;28;19920;-74
2023/01/18 04:55:40;;;;;;;;;;;;;;;2.09;100.00;96629.22;5054132;28;19982;-74
2023/01/18 04:58:05;;;;;;;;;;;;;;;1.84;100.00;96641.13;5074703;28;19960;-79
2023/01/18 05:00:31;;;;;;;;;;;;;;;1.88;100.00;96650.28;5055186;28;20394;-77
2023/01/18 05:02:56;;;;;;;;;;;;;;;1.82;100.00;96651.31;5073637;28;20313;-76
2023/01/18 05:05:21;;;;;;;;;;;;;;;2.14;100.00;96651.88;5054461;28;20345;-76
2023/01/18 05:07:46;;;;;;;;;;;;;;;2.05;100.00;96650.53;5071623;28;21048;-76
2023/01/18 05:10:12;;;;;;;;;;;;;;;1.99;100.00;96648.22;5073062;28;19916;-76
2023/01/18 05:12:37;;;;;;;;;;;;;;;2.00;100.00;96660.00;5054230;28;19987;-76
2023/01/18 05:15:03;;;;;;;;;;;;;;;2.15;100.00;96663.72;5072567;28;19959;-76
2023/01/18 05:17:29;;;;;;;;;;;;;;;1.82;100.00;96665.72;5056256;28;19940;-77
2023/01/18 05:19:54;;;;;;;;;;;;;;;1.84;100.00;96669.03;5076740;28;20376;-77
2023/01/18 05:22:20;;;;;;;;;;;;;;;2.13;100.00;96670.56;5076388;28;19989;-76
2023/01/18 05:24:46;;;;;;;;;;;;;;;2.18;100.00;96667.84;5057104;28;20039;-76
2023/01/18 05:27:12;;;;;;;;;;;;;;;1.82;100.00;96674.16;5054906;28;20003;-77
2023/01/18 05:29:37;;;;;;;;;;;;;;;1.55;100.00;96673.41;5076394;28;19920;-77
2023/01/18 05:32:02;;;;;;;;;;;;;;;1.66;100.00;96685.72;5056177;28;19920;-76
2023/01/18 05:34:28;;;;;;;;;;;;;;;1.94;100.00;96689.84;5056494;28;20039;-76
2023/01/18 05:36:53;;;;;;;;;;;;;;;2.05;100.00;96692.84;5075586;28;19927;-76
2023/01/18 05:39:18;;;;;;;;;;;;;;;2.14;100.00;96689.97;5074610;28;20322;-76
2023/01/18 05:41:44;;;;;;;;;;;;;;;2.18;100.00;96680.56;5058412;28;21084;-76
2023/01/18 05:44:09;;;;;;;;;;;;;;;2.47;100.00;96675.25;5057884;28;19930;-76
2023/01/18 05:46:35;;;;;;;;;;;;;;;2.27;100.00;96672.59;5074800;28;19958;-76
2023/01/18 05:49:00;;;;;;;;;;;;;;;2.30;100.00;96664.84;5063366;28;19947;-76
2023/01/18 05:51:25;;;;;;;;;;;;;;;2.13;100.00;96679.91;5075414;28;19920;-76
2023/01/18 05:53:51;;;;;;;;;;;;;;;1.92;100.00;96677.22;5073990;28;19995;-76
2023/01/18 05:56:16;;;;;;;;;;;;;;;1.50;100.00;96690.47;5061469;28;19969;-77
2023/01/18 05:58:41;;;;;;;;;;;;;;;1.59;100.00;96705.38;5056478;28;19920;-76
2023/01/18 06:01:07;;;;;;;;;;;;;;;1.86;100.00;96711.25;5073025;28;19920;-76
2023/01/18 06:03:36;;;;;;;;;;;;;;;1.86;100.00;96711.25;5056983;28;19921;-77
2023/01/18 06:06:01;;;;;;;;;;;;;;;1.80;100.00;96713.16;5072867;28;19919;-76
2023/01/18 06:08:26;;;;;;;;;;;;;;;1.89;100.00;96728.06;5054463;28;20650;-76
2023/01/18 06:10:55;;;;;;;;;;;;;;;1.90;100.00;96717.06;5046870;28;19920;-77
2023/01/18 06:13:21;;;;;;;;;;;;;;;2.02;100.00;96716.63;5055266;28;19931;-77
2023/01/18 06:15:46;;;;;;;;;;;;;;;1.73;100.00;96732.00;5055807;28;20455;-77
2023/01/18 06:18:12;;;;;;;;;;;;;;;1.60;100.00;96731.59;5054067;28;19921;-77
2023/01/18 06:20:37;;;;;;;;;;;;;;;1.65;100.00;96733.09;5072260;28;20402;-76
2023/01/18 06:23:02;;;;;;;;;;;;;;;1.52;100.00;96739.44;5072710;28;20333;-77
2023/01/18 06:25:27;;;;;;;;;;;;;;;1.52;100.00;96747.06;5055102;28;20610;-77
2023/01/18 06:27:52;;;;;;;;;;;;;;;1.75;100.00;96760.72;5072766;28;19938;-77
2023/01/18 06:30:18;;;;;;;;;;;;;;;1.90;100.00;96761.91;5047233;28;19974;-77
2023/01/18 06:32:43;;;;;;;;;;;;;;;1.70;100.00;96757.50;5054692;28;19982;-77
2023/01/18 06:35:08;;;;;;;;;;;;;;;1.62;100.00;96765.34;5071992;28;19951;-77
2023/01/18 06:37:33;;;;;;;;;;;;;;;1.45;100.00;96763.34;5071721;28;20353;-77
2023/01/18 06:39:59;;;;;;;;;;;;;;;1.71;100.00;96775.22;5054777;28;19917;-78
2023/01/18 06:42:24;;;;;;;;;;;;;;;1.44;100.00;96774.38;5072936;28;20445;-76
2023/01/18 06:44:49;;;;;;;;;;;;;;;1.59;100.00;96781.50;5070067;28;20565;-75
2023/01/18 06:47:18;;;;;;;;;;;;;;;1.50;100.00;96781.78;5072121;28;19916;-76
2023/01/18 06:49:44;;;;;;;;;;;;;;;1.45;100.00;96788.72;5055023;28;20473;-76
2023/01/18 06:52:09;;;;;;;;;;;;;;;1.24;100.00;96790.22;5056196;28;19950;-75
2023/01/18 06:54:35;;;;;;;;;;;;;;;1.59;100.00;96806.84;5073522;28;20412;-76
2023/01/18 06:57:00;;;;;;;;;;;;;;;1.28;100.00;96796.00;5071702;28;19931;-76
2023/01/18 06:59:27;;;;;;;;;;;;;;;1.49;100.00;96800.44;5053290;28;20557;-75
2023/01/18 07:01:53;;;;;;;;;;;;;;;1.56;100.00;96801.91;5071975;28;19921;-76
2023/01/18 07:04:18;;;;;;;;;;;;;;;1.55;100.00;96809.53;5053190;28;19924;-76
2023/01/18 07:06:43;;;;;;;;;;;;;;;0.93;100.00;96800.41;5005363;28;1916556;-76
2023/01/18 07:09:09;;;;;;;;;;;;;;;1.34;100.00;96806.78;5072802;28;19920;-76
2023/01/18 07:11:35;;;;;;;;;;;;;;;1.50;100.00;96824.91;5074277;28;19916;-76
2023/01/18 07:14:01;;;;;;;;;;;;;;;1.66;100.00;96823.53;5055406;28;20038;-75
2023/01/18 07:16:27;;;;;;;;;;;;;;;1.16;100.00;96810.69;5052742;28;20003;-75
2023/01/18 07:18:52;;;;;;;;;;;;;;;1.08;100.00;96820.25;5070685;28;19908;-74
2023/01/18 07:21:28;;;;;;;;;;;;;;;1.20;100.00;96840.16;5053758;28;19997;-75
2023/01/18 07:23:53;;;;;;;;;;;;;;;1.27;100.00;96829.84;5071408;28;19916;-75
2023/01/18 07:26:18;;;;;;;;;;;;;;;1.15;100.00;96842.00;5053604;28;19927;-75
2023/01/18 07:28:44;;;;;;;;;;;;;;;0.97;100.00;96847.63;5071865;28;19994;-74
2023/01/18 07:31:10;;;;;;;;;;;;;;;0.53;100.00;96857.28;5054851;28;19916;-75
2023/01/18 07:33:35;;;;;;;;;;;;;;;1.14;100.00;96862.31;5053501;28;19920;-76
2023/01/18 07:36:00;;;;;;;;;;;;;;;0.72;100.00;96865.19;5054005;28;19920;-75
2023/01/18 07:38:26;;;;;;;;;;;;;;;1.03;100.00;96868.53;5052230;28;19920;-75
2023/01/18 07:40:56;;;;;;;;;;;;;;;1.25;100.00;96878.91;5053780;28;19928;-74
2023/01/18 07:43:23;;;;;;;;;;;;;;;1.25;100.00;96881.44;5053247;28;19966;-75
2023/01/18 07:45:51;;;;;;;;;;;;;;;0.88;100.00;96868.16;5050971;28;19919;-75
2023/01/18 07:48:16;;;;;;;;;;;;;;;1.18;100.00;96877.41;5068758;28;19924;-75
2023/01/18 07:50:41;;;;;;;;;;;;;;;1.13;100.00;96884.31;5072311;28;19922;-73
2023/01/18 07:53:08;;;;;;;;;;;;;;;1.29;100.00;96899.09;5069867;28;19925;-74
2023/01/18 07:55:33;;;;;;;;;;;;;;;1.33;100.00;96898.13;5071229;28;19916;-73
2023/01/18 07:57:59;;;;;;;;;;;;;;;0.97;100.00;96898.28;5053225;28;19928;-74
2023/01/18 08:00:24;;;;;;;;;;;;;;;1.10;100.00;96912.31;5072327;28;19916;-73
2023/01/18 08:02:50;;;;;;;;;;;;;;;1.19;100.00;96909.50;5071839;28;20442;-74
2023/01/18 08:05:18;;;;;;;;;;;;;;;1.34;100.00;96908.22;5036402;28;20401;-73
2023/01/18 08:07:45;;;;;;;;;;;;;;;1.44;100.00;96914.69;5070846;28;20282;-74
2023/01/18 08:10:10;;;;;;;;;;;;;;;1.22;100.00;96916.19;5053196;28;19974;-72
2023/01/18 08:12:35;;;;;;;;;;;;;;;1.61;100.00;96921.81;5052941;28;19920;-73
2023/01/18 08:15:00;;;;;;;;;;;;;;;1.56;100.00;96922.84;5071939;28;20429;-72
2023/01/18 08:17:28;;;;;;;;;;;;;;;1.67;100.00;96925.88;5068754;28;21220;-73
2023/01/18 08:19:53;;;;;;;;;;;;;;;1.14;100.00;96925.69;5051538;28;19956;-73
2023/01/18 08:22:18;;;;;;;;;;;;;;;1.50;100.00;96938.22;5071039;28;19974;-73
2023/01/18 08:24:43;;;;;;;;;;;;;;;1.29;100.00;96945.56;5071084;28;19923;-73
2023/01/18 08:27:09;;;;;;;;;;;;;;;1.62;100.00;96958.16;5070637;28;19953;-73
2023/01/18 08:29:35;;;;;;;;;;;;;;;1.68;100.00;96955.44;5069141;28;19971;-73
2023/01/18 08:32:01;;;;;;;;;;;;;;;1.32;100.00;96959.84;5070348;28;20366;-73
2023/01/18 08:34:26;;;;;;;;;;;;;;;1.81;100.00;96966.06;5051846;28;19967;-73
2023/01/18 08:36:51;;;;;;;;;;;;;;;1.44;100.00;96964.59;5054005;28;19920;-73
2023/01/18 08:39:17;;;;;;;;;;;;;;;1.67;100.00;96977.44;5070093;28;20337;-73
2023/01/18 08:41:42;;;;;;;;;;;;;;;1.68;100.00;96976.56;5070310;28;19926;-73
2023/01/18 08:44:07;;;;;;;;;;;;;;;1.79;100.00;96980.50;5070311;28;20467;-74
2023/01/18 08:46:32;;;;;;;;;;;;;;;2.03;100.00;96979.78;5071800;28;20646;-75
2023/01/18 08:48:58;;;;;;;;;;;;;;;1.90;100.00;96975.94;5042845;28;19924;-73
2023/01/18 08:51:24;;;;;;;;;;;;;;;1.84;100.00;96981.19;5052113;28;19920;-73
2023/01/18 08:53:57;;;;;;;;;;;;;;;1.77;100.00;96992.41;5052529;28;19971;-73
2023/01/18 08:56:22;;;;;;;;;;;;;;;1.84;100.00;96993.88;5052011;28;20345;-73
2023/01/18 08:58:50;;;;;;;;;;;;;;;1.90;100.00;96998.78;5051683;28;19928;-73
2023/01/18 09:01:15;;;;;;;;;;;;;;;2.09;100.00;96996.50;5070160;28;19927;-73
2023/01/18 09:03:41;;;;;;;;;;;;;;;2.14;100.00;96999.75;5070025;28;19927;-73
2023/01/18 09:06:08;;;;;;;;;;;;;;;2.36;100.00;96997.38;5069573;28;19947;-73
2023/01/18 09:08:33;;;;;;;;;;;;;;;2.28;100.00;96989.16;5069862;28;19959;-74
2023/01/18 09:11:02;;;;;;;;;;;;;;;2.75;100.00;96991.06;5070808;28;19955;-73
2023/01/18 09:13:27;;;;;;;;;;;;;;;2.29;100.00;96980.66;5053210;28;19916;-74
2023/01/18 09:16:02;;;;;;;;;;;;;;;2.35;100.00;96985.56;5070095;28;20640;-74
2023/01/18 09:18:28;;;;;;;;;;;;;;;2.50;100.00;96992.69;5070083;28;20360;-73
2023/01/18 09:20:54;;;;;;;;;;;;;;;2.52;100.00;96987.56;5052255;28;19916;-74
2023/01/18 09:23:19;;;;;;;;;;;;;;;2.55;100.00;96997.63;5070262;28;19916;-74
2023/01/18 09:25:44;;;;;;;;;;;;;;;2.62;100.00;96998.25;5069813;28;19920;-74
2023/01/18 09:28:11;;;;;;;;;;;;;;;2.78;100.00;96998.56;5052054;28;20037;-74
2023/01/18 09:30:37;;;;;;;;;;;;;;;3.07;100.00;97007.78;5069723;28;20366;-75
2023/01/18 09:33:03;;;;;;;;;;;;;;;2.05;100.00;97000.88;5052443;28;19952;-74
2023/01/18 09:35:28;;;;;;;;;;;;;;;2.87;100.00;97022.00;5068921;28;19963;-74
2023/01/18 09:37:53;;;;;;;;;;;;;;;2.70;100.00;97016.63;5052320;28;19960;-74
2023/01/18 09:40:19;;;;;;;;;;;;;;;2.81;100.00;97026.47;5069744;28;19916;-73
2023/01/18 09:42:44;;;;;;;;;;;;;;;2.54;100.00;97025.63;5069507;28;19981;-74
2023/01/18 09:45:18;;;;;;;;;;;;;;;2.84;100.00;97037.34;5050999;28;20282;-74
2023/01/18 09:47:43;;;;;;;;;;;;;;;2.78;100.00;97034.16;5052954;28;19920;-74
2023/01/18 09:50:14;;;;;;;;;;;;;;;2.67;100.00;97037.91;5052479;28;19920;-74
2023/01/18 09:53:09;;;;;;;;;;;;;;;3.19;100.00;97053.13;5052717;28;20374;-74
2023/01/18 09:55:38;;;;;;;;;;;;;;;3.18;100.00;97048.13;5052804;28;20011;-74
2023/01/18 09:58:06;;;;;;;;;;;;;;;3.48;100.00;97051.31;5069919;28;20009;-74
2023/01/18 10:00:32;;;;;;;;;;;;;;;3.63;100.00;97045.69;5069996;28;19927;-74
2023/01/18 10:03:18;;;;;;;;;;;;;;;3.50;100.00;97040.19;5055082;28;19926;-74
2023/01/18 10:05:51;;;;;;;;;;;;;;;3.11;100.00;97037.31;5073768;28;19916;-74
2023/01/18 10:08:17;;;;;;;;;;;;;;;3.60;100.00;97045.78;5073540;28;20057;-74
2023/01/18 10:10:42;;;;;;;;;;;;;;;3.62;100.00;97038.91;5054001;28;20463;-73
2023/01/18 10:13:46;;;;;;;;;;;;;;;3.29;100.00;97041.78;5071778;28;20023;-73
2023/01/18 10:16:15;;;;;;;;;;;;;;;3.18;100.00;97043.03;4999739;28;20019;-74
2023/01/18 10:18:44;;;;;;;;;;;;;;;3.60;100.00;97055.97;4984507;28;20052;-74
2023/01/18 10:21:14;;;;;;;;;;;;;;;3.52;100.00;97055.41;5020349;28;19955;-74
2023/01/18 10:23:41;;;;;;;;;;;;;;;3.75;100.00;97050.31;5054304;28;19923;-74
2023/01/18 10:26:18;;;;;;;;;;;;;;;3.62;100.00;97049.09;5055161;28;19921;-73
2023/01/18 10:28:47;;;;;;;;;;;;;;;4.24;100.00;97057.03;5055568;28;19920;-74
2023/01/18 10:31:16;;;;;;;;;;;;;;;3.94;100.00;97042.00;5073236;28;20484;-73
2023/01/18 10:33:42;;;;;;;;;;;;;;;3.95;100.00;97048.78;5053034;28;20458;-73
2023/01/18 10:36:37;;;;;;;;;;;;;;;3.18;100.00;97043.84;5054743;28;19920;-73
2023/01/18 10:39:04;;;;;;;;;;;;;;;3.65;100.00;97069.38;5055189;28;19920;-73
2023/01/18 10:41:31;;;;;;;;;;;;;;;2.86;100.00;97065.25;5044981;28;19925;-73
2023/01/18 10:43:56;;;;;;;;;;;;;;;3.75;100.00;97085.16;5053730;28;19919;-73
2023/01/18 10:46:21;;;;;;;;;;;;;;;3.47;100.00;97081.03;5055514;28;20274;-73
2023/01/18 10:48:48;;;;;;;;;;;;;;;3.53;100.00;97079.97;5052892;28;19966;-73
2023/01/18 10:51:34;;;;;;;;;;;;;;;2.70;100.00;97070.81;5070305;28;20318;-73
2023/01/18 10:53:59;;;;;;;;;;;;;;;3.50;100.00;97105.53;5037442;28;19924;-73
2023/01/18 10:56:25;;;;;;;;;;;;;;;3.59;100.00;97099.31;5053692;28;20417;-73
2023/01/18 10:58:51;;;;;;;;;;;;;;;3.90;100.00;97107.53;5068952;28;19924;-73
2023/01/18 11:01:24;;;;;;;;;;;;;;;3.77;100.00;97101.19;5070390;28;20443;-74
2023/01/18 11:03:50;;;;;;;;;;;;;;;4.03;100.00;97117.25;5054539;28;19920;-74
2023/01/18 11:06:15;;;;;;;;;;;;;;;4.37;100.00;97099.00;5051467;28;20413;-74
2023/01/18 11:08:41;;;;;;;;;;;;;;;4.72;100.00;97099.38;5054005;28;19924;-73
2023/01/18 11:11:12;;;;;;;;;;;;;;;4.73;100.00;97080.66;5052121;28;20401;-73
2023/01/18 11:13:38;;;;;;;;;;;;;;;4.46;100.00;97067.25;5070859;28;19916;-74
2023/01/18 11:16:11;;;;;;;;;;;;;;;4.86;100.00;97063.13;5072081;28;19922;-73
2023/01/18 11:18:36;;;;;;;;;;;;;;;5.10;100.00;97071.50;5070642;28;20007;-73
2023/01/18 11:21:02;;;;;;;;;;;;;;;4.84;100.00;97068.31;5072210;28;20065;-73
2023/01/18 11:23:30;;;;;;;;;;;;;;;5.00;100.00;97064.22;5069281;28;20379;-73
2023/01/18 11:26:16;;;;;;;;;;;;;;;5.53;100.00;97060.31;5055313;28;19920;-73
2023/01/18 11:29:00;;;;;;;;;;;;;;;5.44;100.00;97053.88;5053917;28;20435;-73
2023/01/18 11:31:29;;;;;;;;;;;;;;;5.50;100.00;97052.00;5070128;28;19922;-73
2023/01/18 11:33:55;;;;;;;;;;;;;;;5.63;100.00;97043.72;5070022;28;19916;-73
2023/01/18 11:36:32;;;;;;;;;;;;;;;5.56;100.00;97042.31;5052050;28;19962;-73
2023/01/18 11:39:15;;;;;;;;;;;;;;;5.85;100.00;97048.69;5051872;28;20418;-73
2023/01/18 11:41:40;;;;;;;;;;;;;;;5.86;100.00;97037.59;5070296;28;19968;-73
2023/01/18 11:44:10;;;;;;;;;;;;;;;6.05;100.00;97031.69;5073073;28;19951;-73
2023/01/18 11:46:40;;;;;;;;;;;;;;;5.67;100.00;97031.63;5051610;28;20359;-73
2023/01/18 11:49:08;;;;;;;;;;;;;;;5.79;100.00;97031.13;5051634;28;20025;-74
2023/01/18 11:51:37;;;;;;;;;;;;;;;5.61;100.00;97032.75;5071411;28;19922;-73
2023/01/18 11:54:10;;;;;;;;;;;;;;;5.15;100.00;97037.25;5052421;28;21099;-73
2023/01/18 11:56:36;;;;;;;;;;;;;;;5.23;100.00;97040.31;5053181;28;19923;-73
2023/01/18 11:59:01;;;;;;;;;;;;;;;4.86;100.00;97046.13;5069930;28;19920;-74
2023/01/18 12:01:26;;;;;;;;;;;;;;;5.32;100.00;97051.03;5052716;28;19951;-74
2023/01/18 12:04:11;;;;;;;;;;;;;;;5.36;100.00;97043.19;5071178;28;19924;-74
2023/01/18 12:06:45;;;;;;;;;;;;;;;5.48;100.00;97041.00;5050754;28;19916;-73
2023/01/18 12:09:13;;;;;;;;;;;;;;;5.48;100.00;97046.13;5070455;28;20009;-74
2023/01/18 12:11:56;;;;;;;;;;;;;;;4.86;100.00;97051.22;5070637;28;20558;-74
2023/01/18 12:14:22;;;;;;;;;;;;;;;4.90;100.00;97052.72;5070496;28;19916;-73
2023/01/18 12:16:50;;;;;;;;;;;;;;;5.36;100.00;97061.06;5070015;28;19965;-74
2023/01/18 12:19:18;;;;;;;;;;;;;;;5.36;100.00;97055.09;5069792;28;19920;-74
2023/01/18 12:21:58;;;;;;;;;;;;;;;5.16;100.00;97058.50;5070641;28;20332;-74
2023/01/18 12:24:30;;;;;;;;;;;;;;;5.94;100.00;97061.97;5069393;28;20011;-73
2023/01/18 12:27:17;;;;;;;;;;;;;;;6.02;100.00;97054.81;5044983;28;19923;-73
2023/01/18 12:30:01;;;;;;;;;;;;;;;5.74;100.00;97045.78;5051851;28;19916;-74
2023/01/18 12:32:34;;;;;;;;;;;;;;;5.71;100.00;97051.03;5071240;28;19955;-73
2023/01/18 12:35:15;;;;;;;;;;;;;;;6.05;100.00;97044.47;5051013;28;19912;-74
2023/01/18 12:37:58;;;;;;;;;;;;;;;5.75;100.00;97055.13;5069821;28;19916;-74
2023/01/18 12:40:30;;;;;;;;;;;;;;;5.59;100.00;97051.59;5070363;28;20308;-74
2023/01/18 12:43:05;;;;;;;;;;;;;;;5.91;100.00;97062.09;5052163;28;19923;-74
2023/01/18 12:45:42;;;;;;;;;;;;;;;6.20;100.00;97053.16;5071183;28;19959;-73
2023/01/18 12:48:10;;;;;;;;;;;;;;;5.70;100.00;97046.81;5070575;28;19920;-74
2023/01/18 12:50:36;;;;;;;;;;;;;;;5.16;100.00;97055.97;5069361;28;19923;-73
2023/01/18 12:53:24;;;;;;;;;;;;;;;5.53;100.00;97062.06;5050211;28;19987;-73
2023/01/18 12:55:50;;;;;;;;;;;;;;;5.45;100.00;97062.38;5063267;28;19916;-73
2023/01/18 12:58:19;;;;;;;;;;;;;;;5.40;100.00;97065.13;5052032;28;19920;-73
2023/01/18 13:00:48;;;;;;;;;;;;;;;5.89;100.00;97066.47;5052128;28;20406;-73
2023/01/18 13:03:15;;;;;;;;;;;;;;;5.74;100.00;97056.00;5051465;28;19924;-73
2023/01/18 13:05:49;;;;;;;;;;;;;;;5.27;100.00;97066.56;5050966;28;20561;-73
2023/01/18 13:08:30;;;;;;;;;;;;;;;5.11;100.00;97071.47;5052917;28;20363;-72
2023/01/18 13:10:55;;;;;;;;;;;;;;;5.95;100.00;97077.25;5070345;28;19951;-72
2023/01/18 13:13:22;;;;;;;;;;;;;;;5.71;100.00;97068.09;5051610;28;19915;-72
2023/01/18 13:15:51;;;;;;;;;;;;;;;5.12;100.00;97068.00;5050873;28;19916;-72
2023/01/18 13:18:24;;;;;;;;;;;;;;;5.39;100.00;97089.00;5050196;28;19920;-73
2023/01/18 13:20:49;;;;;;;;;;;;;;;5.30;100.00;97089.38;5069427;28;19917;-72
2023/01/18 13:23:20;;;;;;;;;;;;;;;5.49;100.00;97089.44;5070274;28;19919;-72
2023/01/18 13:25:54;;;;;;;;;;;;;;;5.45;100.00;97085.34;5069071;28;19988;-72